Flight Track Log - Related Links

Times and Time Zones

All times are in EST time to prevent confusion due to time zone crossing. See the AAY860 flight status page for this flight to view local times or setup timezone preferences in your user account.

Time Position Orientation Groundspeed Altitude Reporting Facility
EST Latitude Longitude Course Direction KTS MPH feet Rate Location/Type
Wed 09:00:19 AM 27.9167 -82.7000 North 162 186 700  Level Tampa TRACON
Wed 09:02:18 AM 28.0331 -82.6950 North 229 264 4,400 2,279 Climbing Jacksonville Center
Wed 09:03:18 AM 28.1081 -82.7183 345° North 247 284 7,500 2,900 Climbing Jacksonville Center
Wed 09:04:18 AM 28.1853 -82.7419 345° North 263 303 10,200 2,000 Climbing Jacksonville Center
Wed 09:05:18 AM 28.2731 -82.7700 344° North 292 336 11,500 1,700 Climbing Jacksonville Center
Wed 09:06:18 AM 28.3753 -82.8006 345° North 337 388 13,600 2,200 Climbing Jacksonville Center
Wed 09:07:18 AM 28.4839 -82.8311 346° North 375 432 15,900 2,100 Climbing Jacksonville Center
Wed 09:08:18 AM 28.5986 -82.8547 350° North 400 460 17,800 2,100 Climbing Jacksonville Center
Wed 09:09:18 AM 28.7217 -82.8831 349° North 412 474 20,100 1,850 Climbing Jacksonville Center
Wed 09:10:18 AM 28.8428 -82.9044 351° North 417 480 21,500 1,500 Climbing Jacksonville Center
Wed 09:11:18 AM 28.9658 -82.9281 350° North 428 493 23,100 1,850 Climbing Jacksonville Center
Wed 09:12:18 AM 29.0808 -82.9758 340° North 434 499 25,200 1,950 Climbing Jacksonville Center
Wed 09:13:18 AM 29.1956 -83.0233 340° North 434 499 27,000 1,600 Climbing Jacksonville Center
Wed 09:14:18 AM 29.3061 -83.0664 341° North 434 499 28,400 1,400 Climbing Jacksonville Center
Wed 09:15:18 AM 29.4228 -83.1119 341° North 428 493 29,800 1,250 Climbing Jacksonville Center
Wed 09:16:18 AM 29.5375 -83.1622 339° North 428 493 30,900 950 Climbing Jacksonville Center
Wed 09:17:18 AM 29.6522 -83.2033 343° North 428 493 31,700 550 Climbing Jacksonville Center
Wed 09:18:18 AM 29.7669 -83.2492 341° North 428 493 32,000 150 Climbing Jacksonville Center
Wed 09:19:18 AM 29.8714 -83.2903 341° North 430 495 32,000 -50 Level Jacksonville Center
Wed 09:20:18 AM 29.9839 -83.3361 341° North 435 501 31,900 -50 Descending Jacksonville Center
Wed 09:21:18 AM 30.1006 -83.3800 342° North 435 501 31,900 50 Level Jacksonville Center
Wed 09:22:18 AM 30.2153 -83.4261 341° North 435 501 32,000  Climbing Jacksonville Center
Wed 09:23:18 AM 30.3300 -83.4725 341° North 435 501 31,900  Descending Jacksonville Center
Wed 09:24:18 AM 30.4444 -83.5192 341° North 430 495 32,000 50 Climbing Jacksonville Center
Wed 09:25:18 AM 30.5592 -83.5633 342° North 430 495 32,000  Level Jacksonville Center
Wed 09:26:18 AM 30.6694 -83.6075 341° North 425 489 32,000  Level Jacksonville Center
Wed 09:27:18 AM 30.7800 -83.6542 340° North 425 489 32,000  Level Jacksonville Center
Wed 09:28:18 AM 30.8903 -83.6986 341° North 425 489 32,000  Level Jacksonville Center
Wed 09:29:18 AM 31.0028 -83.7458 340° North 425 489 32,000  Level Jacksonville Center
Wed 09:30:18 AM 31.1153 -83.7903 341° North 425 489 32,000  Level Jacksonville Center
Wed 09:31:51 AM 31.2956 -83.8664 340° North 444 511 32,000  Level Atlanta Center
Wed 09:32:51 AM 31.4083 -83.9125 341° North 424 488 32,000  Level Atlanta Center
Wed 09:33:51 AM 31.5169 -83.9586 340° North 424 488 32,000  Level Atlanta Center
Wed 09:34:51 AM 31.6233 -83.9828 349° North 424 488 32,000  Level Atlanta Center
Wed 09:35:51 AM 31.7425 -84.0094 349° North 424 488 32,000  Level Atlanta Center
Wed 09:36:51 AM 31.8594 -84.0339 350° North 429 494 32,000  Level Atlanta Center
Wed 09:37:51 AM 31.9783 -84.0608 349° North 429 494 32,000  Level Atlanta Center
Wed 09:38:51 AM 32.0953 -84.0856 350° North 429 494 32,000  Level Atlanta Center
Wed 09:39:51 AM 32.2142 -84.1125 349° North 429 494 32,000  Level Atlanta Center
Wed 09:40:51 AM 32.3311 -84.1397 349° North 429 494 32,000  Level Atlanta Center
Wed 09:41:51 AM 32.4500 -84.1669 349° North 429 494 32,000  Level Atlanta Center
Wed 09:42:51 AM 32.5689 -84.1917 350° North 429 494 32,000  Level Atlanta Center
Wed 09:43:51 AM 32.6858 -84.2214 348° North 429 494 32,000  Level Atlanta Center
Wed 09:44:51 AM 32.8150 -84.2539 348° North 429 494 32,000  Level Atlanta Center
Wed 09:45:51 AM 32.9342 -84.2814 349° North 429 494 32,000  Level Atlanta Center
Wed 09:46:51 AM 33.0531 -84.3089 349° North 429 494 32,000  Level Atlanta Center
Wed 09:47:51 AM 33.1719 -84.3342 350° North 429 494 32,000  Level Atlanta Center
Wed 09:48:51 AM 33.2803 -84.3569 350° North 429 494 32,000  Level Atlanta Center
Wed 09:49:51 AM 33.3972 -84.3847 349° North 429 494 32,000  Level Atlanta Center
Wed 09:50:51 AM 33.5139 -84.4125 349° North 429 494 32,000  Level Atlanta Center
Wed 09:51:51 AM 33.6475 -84.4331 353° North 429 494 32,000  Level Atlanta Center
Wed 09:52:51 AM 33.7708 -84.4036 11° North 433 498 32,000  Level Atlanta Center
Wed 09:53:51 AM 33.9044 -84.3742 10° North 467 537 32,000  Level Atlanta Center
Wed 09:54:51 AM 34.0256 -84.3447 11° North 469 540 32,000 -100 Level Atlanta Center
Wed 09:55:51 AM 34.1467 -84.3150 11° North 464 534 31,800 -500 Descending Atlanta Center
Wed 09:56:51 AM 34.2719 -84.2850 11° North 476 548 31,000 -400 Descending Atlanta Center
Wed 09:57:51 AM 34.4036 -84.2553 11° North 470 541 31,000  Level Atlanta Center
Wed 09:58:51 AM 34.5289 -84.2228 12° North 465 535 31,000  Level Atlanta Center
Wed 09:59:51 AM 34.6603 -84.1953 10° North 472 543 31,000  Level Atlanta Center
Wed 10:00:51 AM 34.7814 -84.1678 11° North 462 532 31,000  Level Atlanta Center
Wed 10:01:51 AM 34.9128 -84.1375 11° North 462 532 31,000  Level Atlanta Center
Wed 10:02:51 AM 35.0381 -84.1453 357° North 460 529 31,000  Level Atlanta Center
Wed 10:03:51 AM 35.1592 -84.1581 355° North 449 517 31,000  Level Atlanta Center
Wed 10:04:51 AM 35.2822 -84.1711 355° North 443 510 31,000  Level Atlanta Center
Wed 10:05:51 AM 35.4072 -84.1839 355° North 443 510 31,000  Level Atlanta Center
Wed 10:06:51 AM 35.5303 -84.1994 354° North 443 510 31,000 -300 Level Atlanta Center
Wed 10:07:51 AM 35.6514 -84.2100 356° North 443 510 30,400 -650 Descending Atlanta Center
Wed 10:08:51 AM 35.7767 -84.2256 354° North 443 510 29,700 -835 Descending Atlanta Center
Wed 10:10:29 AM 35.9753 -84.2456 355° North 449 517 28,200 -981 Descending Indianapolis Center
Wed 10:11:30 AM 36.0972 -84.2589 355° North 447 514 27,100 -1,131 Descending Indianapolis Center
Wed 10:12:31 AM 36.2394 -84.2753 355° North 434 499 25,900 -1,082 Descending Indianapolis Center
Wed 10:13:32 AM 36.3564 -84.2872 355° North 427 491 24,900 -934 Descending Indianapolis Center
Wed 10:14:33 AM 36.4703 -84.3011 354° North 417 480 24,000 -443 Descending Indianapolis Center
Wed 10:15:34 AM 36.5775 -84.3125 355° North 411 473 24,000  Level Indianapolis Center
Wed 10:16:35 AM 36.6931 -84.3269 354° North 413 475 24,000 -295 Level Indianapolis Center
Wed 10:17:36 AM 36.8083 -84.3383 355° North 415 478 23,400 -787 Descending Indianapolis Center
Wed 10:18:37 AM 36.9211 -84.3517 355° North 408 470 22,400 -984 Descending Indianapolis Center
Wed 10:19:38 AM 37.0303 -84.3633 355° North 397 457 21,400 -1,475 Descending Indianapolis Center
Wed 10:20:39 AM 37.1381 -84.3764 354° North 391 450 19,400 -1,869 Descending Indianapolis Center
Wed 10:21:40 AM 37.2628 -84.3900 355° North 386 444 17,600 -1,934 Descending Indianapolis Center
Wed 10:22:40 AM 37.3683 -84.4028 355° North 381 438 15,500 -2,033 Descending Indianapolis Center
Wed 10:23:41 AM 37.4672 -84.4144 355° North 361 415 13,500 -1,967 Descending Indianapolis Center
Wed 10:24:42 AM 37.5628 -84.4244 355° North 346 398 11,500 -1,721 Descending Indianapolis Center
Wed 10:25:43 AM 37.6542 -84.4383 353° North 335 386 10,000 -1,328 Descending Indianapolis Center
Wed 10:26:44 AM 37.7253 -84.4903 330° Northwest 302 348 8,800 -1,475 Descending Indianapolis Center
Wed 10:27:45 AM 37.7947 -84.5319 335° Northwest 283 326 7,000 -1,721 Descending Indianapolis Center
Wed 10:28:46 AM 37.8725 -84.5294 North 282 325 5,300 -1,918 Descending Indianapolis Center
Wed 10:29:47 AM 37.9425 -84.5344 357° North 263 303 3,100 -1,131 Descending Indianapolis Center
Wed 10:30:48 AM 37.9975 -84.5050 23° Northeast 238 274 3,000 -295 Descending Indianapolis Center
Wed 10:31:49 AM 38.0453 -84.5022 North 215 247 2,500 -390 Descending Indianapolis Center
Wed 10:32:51 AM 38.0767 -84.5406 316° Northwest 173 199 2,200 -390 Descending Indianapolis Center
Wed 10:33:52 AM 38.0558 -84.5847 239° Southwest 152 175 1,700 -492 Descending Indianapolis Center
Wed 10:35:00 AM 38.0333 -84.6000 302° West  Level FlightAware Approximate
Wed 10:42:00 AM 38.0368 -84.6086 302° West  Level Estimated
Wed 10:43:00 AM 38.0368 -84.6086 302° West  Level Estimated

Login

Don't have an account? Register now (free) for customized features, flight alerts, and more!